sensor_id;sensor_type;location;lat;lon;timestamp;P1;durP1;ratioP1;P2;durP2;ratioP2
34984;SDS011;21190;58.750;17.004;2023-03-24T00:00:15;12.15;;;2.10;;
34984;SDS011;21190;58.750;17.004;2023-03-24T00:02:46;6.95;;;2.03;;
34984;SDS011;21190;58.750;17.004;2023-03-24T00:05:15;14.20;;;2.05;;
34984;SDS011;21190;58.750;17.004;2023-03-24T00:07:46;12.60;;;1.88;;
34984;SDS011;21190;58.750;17.004;2023-03-24T00:10:20;13.57;;;2.08;;
34984;SDS011;21190;58.750;17.004;2023-03-24T00:12:49;18.38;;;2.92;;
34984;SDS011;21190;58.750;17.004;2023-03-24T00:15:17;13.65;;;2.35;;
34984;SDS011;21190;58.750;17.004;2023-03-24T00:17:47;15.10;;;3.13;;
34984;SDS011;21190;58.750;17.004;2023-03-24T00:20:18;10.70;;;2.45;;
34984;SDS011;21190;58.750;17.004;2023-03-24T00:22:50;10.57;;;2.13;;
34984;SDS011;21190;58.750;17.004;2023-03-24T00:25:23;13.48;;;2.70;;
34984;SDS011;21190;58.750;17.004;2023-03-24T00:27:54;14.82;;;2.28;;
34984;SDS011;21190;58.750;17.004;2023-03-24T00:30:23;13.50;;;2.42;;
34984;SDS011;21190;58.750;17.004;2023-03-24T00:32:51;8.75;;;2.22;;
34984;SDS011;21190;58.750;17.004;2023-03-24T00:35:18;19.48;;;3.10;;
34984;SDS011;21190;58.750;17.004;2023-03-24T00:37:46;11.18;;;1.80;;
34984;SDS011;21190;58.750;17.004;2023-03-24T00:40:17;12.32;;;2.10;;
34984;SDS011;21190;58.750;17.004;2023-03-24T00:42:45;14.80;;;2.30;;
34984;SDS011;21190;58.750;17.004;2023-03-24T00:45:15;13.73;;;2.60;;
34984;SDS011;21190;58.750;17.004;2023-03-24T00:47:45;18.20;;;2.00;;
34984;SDS011;21190;58.750;17.004;2023-03-24T00:50:16;23.67;;;2.92;;
34984;SDS011;21190;58.750;17.004;2023-03-24T00:52:44;13.20;;;2.22;;
34984;SDS011;21190;58.750;17.004;2023-03-24T00:55:13;16.35;;;3.20;;
34984;SDS011;21190;58.750;17.004;2023-03-24T00:57:43;10.23;;;2.15;;
34984;SDS011;21190;58.750;17.004;2023-03-24T01:00:22;14.48;;;2.58;;
34984;SDS011;21190;58.750;17.004;2023-03-24T01:02:52;13.52;;;2.78;;
34984;SDS011;21190;58.750;17.004;2023-03-24T01:05:22;10.20;;;2.00;;
34984;SDS011;21190;58.750;17.004;2023-03-24T01:07:51;11.43;;;2.95;;
34984;SDS011;21190;58.750;17.004;2023-03-24T01:10:19;15.30;;;2.40;;
34984;SDS011;21190;58.750;17.004;2023-03-24T01:12:53;14.68;;;2.33;;
34984;SDS011;21190;58.750;17.004;2023-03-24T01:15:22;12.27;;;2.05;;
34984;SDS011;21190;58.750;17.004;2023-03-24T01:17:53;16.60;;;3.40;;
34984;SDS011;21190;58.750;17.004;2023-03-24T01:20:21;10.55;;;2.40;;
34984;SDS011;21190;58.750;17.004;2023-03-24T01:22:49;13.10;;;2.00;;
34984;SDS011;21190;58.750;17.004;2023-03-24T01:25:19;12.00;;;2.35;;
34984;SDS011;21190;58.750;17.004;2023-03-24T01:27:48;15.02;;;3.13;;
34984;SDS011;21190;58.750;17.004;2023-03-24T01:30:16;14.57;;;2.53;;
34984;SDS011;21190;58.750;17.004;2023-03-24T01:32:49;14.50;;;2.40;;
34984;SDS011;21190;58.750;17.004;2023-03-24T01:35:18;13.23;;;2.42;;
34984;SDS011;21190;58.750;17.004;2023-03-24T01:37:45;15.15;;;2.33;;
34984;SDS011;21190;58.750;17.004;2023-03-24T01:40:18;9.48;;;2.30;;
34984;SDS011;21190;58.750;17.004;2023-03-24T01:42:48;9.13;;;2.40;;
34984;SDS011;21190;58.750;17.004;2023-03-24T01:48:07;14.85;;;2.63;;
34984;SDS011;21190;58.750;17.004;2023-03-24T01:50:38;14.20;;;2.03;;
34984;SDS011;21190;58.750;17.004;2023-03-24T01:53:08;11.80;;;3.50;;
34984;SDS011;21190;58.750;17.004;2023-03-24T01:55:36;11.15;;;2.45;;
34984;SDS011;21190;58.750;17.004;2023-03-24T01:58:03;17.55;;;3.22;;
34984;SDS011;21190;58.750;17.004;2023-03-24T02:00:32;14.98;;;3.10;;
34984;SDS011;21190;58.750;17.004;2023-03-24T02:03:00;9.98;;;2.30;;
34984;SDS011;21190;58.750;17.004;2023-03-24T02:05:32;9.50;;;2.35;;
34984;SDS011;21190;58.750;17.004;2023-03-24T02:11:07;12.90;;;3.00;;
34984;SDS011;21190;58.750;17.004;2023-03-24T02:13:35;17.98;;;2.33;;
34984;SDS011;21190;58.750;17.004;2023-03-24T02:16:06;13.88;;;2.28;;
34984;SDS011;21190;58.750;17.004;2023-03-24T02:26:47;10.45;;;2.45;;
34984;SDS011;21190;58.750;17.004;2023-03-24T02:45:39;10.00;;;2.75;;
34984;SDS011;21190;58.750;17.004;2023-03-24T02:53:53;22.77;;;2.28;;
34984;SDS011;21190;58.750;17.004;2023-03-24T02:59:09;7.60;;;2.40;;
34984;SDS011;21190;58.750;17.004;2023-03-24T03:01:57;15.82;;;2.42;;
34984;SDS011;21190;58.750;17.004;2023-03-24T03:04:34;15.82;;;2.78;;
34984;SDS011;21190;58.750;17.004;2023-03-24T03:07:16;15.35;;;3.55;;
34984;SDS011;21190;58.750;17.004;2023-03-24T03:10:01;15.48;;;2.15;;
34984;SDS011;21190;58.750;17.004;2023-03-24T03:12:40;12.88;;;2.75;;
34984;SDS011;21190;58.750;17.004;2023-03-24T03:15:11;11.57;;;4.03;;
34984;SDS011;21190;58.750;17.004;2023-03-24T03:17:43;11.73;;;1.92;;
34984;SDS011;21190;58.750;17.004;2023-03-24T03:20:19;15.38;;;2.15;;
34984;SDS011;21190;58.750;17.004;2023-03-24T03:22:50;14.23;;;2.45;;
34984;SDS011;21190;58.750;17.004;2023-03-24T03:25:23;17.42;;;3.33;;
34984;SDS011;21190;58.750;17.004;2023-03-24T03:27:56;13.38;;;2.60;;
34984;SDS011;21190;58.750;17.004;2023-03-24T03:30:26;16.20;;;2.78;;
34984;SDS011;21190;58.750;17.004;2023-03-24T03:33:00;15.50;;;2.85;;
34984;SDS011;21190;58.750;17.004;2023-03-24T03:35:57;14.50;;;3.70;;
34984;SDS011;21190;58.750;17.004;2023-03-24T03:38:48;19.70;;;2.97;;
34984;SDS011;21190;58.750;17.004;2023-03-24T03:41:26;10.10;;;2.42;;
34984;SDS011;21190;58.750;17.004;2023-03-24T03:43:53;15.57;;;2.95;;
34984;SDS011;21190;58.750;17.004;2023-03-24T03:46:21;10.40;;;2.30;;
34984;SDS011;21190;58.750;17.004;2023-03-24T03:48:48;17.27;;;3.17;;
34984;SDS011;21190;58.750;17.004;2023-03-24T03:51:15;11.73;;;2.13;;
34984;SDS011;21190;58.750;17.004;2023-03-24T03:53:45;12.60;;;2.47;;
34984;SDS011;21190;58.750;17.004;2023-03-24T03:56:21;13.75;;;3.60;;
34984;SDS011;21190;58.750;17.004;2023-03-24T03:58:50;22.00;;;2.50;;
34984;SDS011;21190;58.750;17.004;2023-03-24T04:01:20;12.15;;;2.42;;
34984;SDS011;21190;58.750;17.004;2023-03-24T04:06:35;14.13;;;3.15;;
34984;SDS011;21190;58.750;17.004;2023-03-24T04:20:58;12.00;;;2.33;;
34984;SDS011;21190;58.750;17.004;2023-03-24T04:23:25;15.00;;;3.92;;
34984;SDS011;21190;58.750;17.004;2023-03-24T04:28:47;10.65;;;2.60;;
34984;SDS011;21190;58.750;17.004;2023-03-24T04:32:20;7.68;;;2.17;;
34984;SDS011;21190;58.750;17.004;2023-03-24T04:34:37;15.73;;;3.17;;
34984;SDS011;21190;58.750;17.004;2023-03-24T04:39:39;12.68;;;2.63;;
34984;SDS011;21190;58.750;17.004;2023-03-24T04:42:10;11.88;;;2.33;;
34984;SDS011;21190;58.750;17.004;2023-03-24T04:44:47;18.58;;;2.45;;
34984;SDS011;21190;58.750;17.004;2023-03-24T04:47:18;19.95;;;2.85;;
34984;SDS011;21190;58.750;17.004;2023-03-24T04:49:48;11.20;;;2.47;;
34984;SDS011;21190;58.750;17.004;2023-03-24T04:52:15;20.23;;;2.78;;
34984;SDS011;21190;58.750;17.004;2023-03-24T04:54:43;11.52;;;3.63;;
34984;SDS011;21190;58.750;17.004;2023-03-24T04:57:10;13.60;;;3.53;;
34984;SDS011;21190;58.750;17.004;2023-03-24T04:59:37;12.80;;;2.60;;
34984;SDS011;21190;58.750;17.004;2023-03-24T05:02:05;14.65;;;3.55;;
34984;SDS011;21190;58.750;17.004;2023-03-24T05:04:32;10.27;;;3.30;;
34984;SDS011;21190;58.750;17.004;2023-03-24T05:07:03;20.08;;;2.90;;
34984;SDS011;21190;58.750;17.004;2023-03-24T05:09:30;17.48;;;4.05;;
34984;SDS011;21190;58.750;17.004;2023-03-24T05:11:57;15.00;;;2.10;;
34984;SDS011;21190;58.750;17.004;2023-03-24T05:14:27;14.02;;;2.63;;
34984;SDS011;21190;58.750;17.004;2023-03-24T05:16:53;13.25;;;3.17;;
34984;SDS011;21190;58.750;17.004;2023-03-24T05:19:20;17.70;;;2.30;;
34984;SDS011;21190;58.750;17.004;2023-03-24T05:21:47;11.68;;;2.10;;
34984;SDS011;21190;58.750;17.004;2023-03-24T05:24:14;15.88;;;3.70;;
34984;SDS011;21190;58.750;17.004;2023-03-24T05:26:41;12.50;;;2.50;;
34984;SDS011;21190;58.750;17.004;2023-03-24T05:29:08;15.38;;;2.72;;
34984;SDS011;21190;58.750;17.004;2023-03-24T05:31:35;15.07;;;2.90;;
34984;SDS011;21190;58.750;17.004;2023-03-24T05:34:02;17.38;;;3.15;;
34984;SDS011;21190;58.750;17.004;2023-03-24T05:36:29;12.18;;;3.60;;
34984;SDS011;21190;58.750;17.004;2023-03-24T05:38:56;13.43;;;3.03;;
34984;SDS011;21190;58.750;17.004;2023-03-24T05:41:23;21.17;;;5.00;;
34984;SDS011;21190;58.750;17.004;2023-03-24T05:43:50;23.58;;;3.78;;
34984;SDS011;21190;58.750;17.004;2023-03-24T05:46:17;15.15;;;2.83;;
34984;SDS011;21190;58.750;17.004;2023-03-24T05:48:44;13.38;;;2.95;;
34984;SDS011;21190;58.750;17.004;2023-03-24T05:51:12;13.25;;;3.10;;
34984;SDS011;21190;58.750;17.004;2023-03-24T05:53:39;16.70;;;3.40;;
34984;SDS011;21190;58.750;17.004;2023-03-24T05:56:06;12.13;;;4.05;;
34984;SDS011;21190;58.750;17.004;2023-03-24T05:58:37;16.40;;;3.55;;
34984;SDS011;21190;58.750;17.004;2023-03-24T06:01:05;17.15;;;3.20;;
34984;SDS011;21190;58.750;17.004;2023-03-24T06:03:33;15.35;;;3.00;;
34984;SDS011;21190;58.750;17.004;2023-03-24T06:06:08;20.95;;;3.90;;
34984;SDS011;21190;58.750;17.004;2023-03-24T06:08:40;19.45;;;3.28;;
34984;SDS011;21190;58.750;17.004;2023-03-24T06:11:10;10.93;;;2.42;;
34984;SDS011;21190;58.750;17.004;2023-03-24T06:13:37;15.15;;;2.40;;
34984;SDS011;21190;58.750;17.004;2023-03-24T06:16:05;16.65;;;2.28;;
34984;SDS011;21190;58.750;17.004;2023-03-24T06:18:33;22.25;;;2.90;;
34984;SDS011;21190;58.750;17.004;2023-03-24T06:21:00;18.63;;;2.85;;
34984;SDS011;21190;58.750;17.004;2023-03-24T06:23:27;13.75;;;2.53;;
34984;SDS011;21190;58.750;17.004;2023-03-24T06:25:54;13.98;;;2.25;;
34984;SDS011;21190;58.750;17.004;2023-03-24T06:28:23;13.98;;;2.28;;
34984;SDS011;21190;58.750;17.004;2023-03-24T06:30:56;13.40;;;2.50;;
34984;SDS011;21190;58.750;17.004;2023-03-24T06:33:24;17.77;;;2.53;;
34984;SDS011;21190;58.750;17.004;2023-03-24T06:35:51;19.10;;;2.78;;
34984;SDS011;21190;58.750;17.004;2023-03-24T06:38:19;25.58;;;3.22;;
34984;SDS011;21190;58.750;17.004;2023-03-24T06:40:47;21.30;;;3.15;;
34984;SDS011;21190;58.750;17.004;2023-03-24T06:43:14;12.77;;;3.00;;
34984;SDS011;21190;58.750;17.004;2023-03-24T06:45:42;13.93;;;2.60;;
34984;SDS011;21190;58.750;17.004;2023-03-24T06:48:10;16.27;;;2.80;;
34984;SDS011;21190;58.750;17.004;2023-03-24T06:50:37;12.73;;;2.65;;
34984;SDS011;21190;58.750;17.004;2023-03-24T06:53:06;21.55;;;2.95;;
34984;SDS011;21190;58.750;17.004;2023-03-24T06:55:33;22.08;;;3.13;;
34984;SDS011;21190;58.750;17.004;2023-03-24T06:58:00;22.83;;;4.07;;
34984;SDS011;21190;58.750;17.004;2023-03-24T07:00:27;27.05;;;3.97;;
34984;SDS011;21190;58.750;17.004;2023-03-24T07:02:54;21.15;;;3.15;;
34984;SDS011;21190;58.750;17.004;2023-03-24T07:05:22;19.50;;;4.60;;
34984;SDS011;21190;58.750;17.004;2023-03-24T07:07:48;23.45;;;3.25;;
34984;SDS011;21190;58.750;17.004;2023-03-24T07:10:35;18.23;;;2.70;;
34984;SDS011;21190;58.750;17.004;2023-03-24T07:13:05;17.38;;;3.28;;
34984;SDS011;21190;58.750;17.004;2023-03-24T07:15:33;17.98;;;3.25;;
34984;SDS011;21190;58.750;17.004;2023-03-24T07:18:00;22.05;;;3.08;;
34984;SDS011;21190;58.750;17.004;2023-03-24T07:20:27;28.88;;;3.47;;
34984;SDS011;21190;58.750;17.004;2023-03-24T07:22:54;16.30;;;3.28;;
34984;SDS011;21190;58.750;17.004;2023-03-24T07:25:23;21.52;;;4.05;;
34984;SDS011;21190;58.750;17.004;2023-03-24T07:27:54;20.10;;;4.53;;
34984;SDS011;21190;58.750;17.004;2023-03-24T07:30:22;22.02;;;3.42;;
34984;SDS011;21190;58.750;17.004;2023-03-24T07:33:03;20.35;;;2.95;;
34984;SDS011;21190;58.750;17.004;2023-03-24T07:35:32;14.13;;;3.03;;
34984;SDS011;21190;58.750;17.004;2023-03-24T07:37:59;21.50;;;3.67;;
34984;SDS011;21190;58.750;17.004;2023-03-24T07:40:27;15.35;;;3.90;;
34984;SDS011;21190;58.750;17.004;2023-03-24T07:42:58;26.23;;;4.18;;
34984;SDS011;21190;58.750;17.004;2023-03-24T07:45:25;14.88;;;2.92;;
34984;SDS011;21190;58.750;17.004;2023-03-24T07:47:53;16.55;;;3.63;;
34984;SDS011;21190;58.750;17.004;2023-03-24T07:50:22;23.02;;;3.13;;
34984;SDS011;21190;58.750;17.004;2023-03-24T07:52:49;14.07;;;3.10;;
34984;SDS011;21190;58.750;17.004;2023-03-24T07:55:16;15.95;;;3.28;;
34984;SDS011;21190;58.750;17.004;2023-03-24T07:57:47;16.15;;;3.42;;
34984;SDS011;21190;58.750;17.004;2023-03-24T08:00:15;19.70;;;3.20;;
34984;SDS011;21190;58.750;17.004;2023-03-24T08:02:44;21.30;;;2.35;;
34984;SDS011;21190;58.750;17.004;2023-03-24T08:05:13;19.55;;;3.60;;
34984;SDS011;21190;58.750;17.004;2023-03-24T08:07:41;22.83;;;4.40;;
34984;SDS011;21190;58.750;17.004;2023-03-24T08:10:10;35.67;;;3.80;;
34984;SDS011;21190;58.750;17.004;2023-03-24T08:12:39;18.05;;;3.92;;
34984;SDS011;21190;58.750;17.004;2023-03-24T08:15:07;20.15;;;3.25;;
34984;SDS011;21190;58.750;17.004;2023-03-24T08:17:35;17.08;;;5.30;;
34984;SDS011;21190;58.750;17.004;2023-03-24T08:20:03;16.08;;;3.22;;
34984;SDS011;21190;58.750;17.004;2023-03-24T08:22:52;29.77;;;3.45;;
34984;SDS011;21190;58.750;17.004;2023-03-24T08:25:21;24.05;;;3.40;;
34984;SDS011;21190;58.750;17.004;2023-03-24T08:27:49;16.67;;;3.03;;
34984;SDS011;21190;58.750;17.004;2023-03-24T08:30:20;13.50;;;3.08;;
34984;SDS011;21190;58.750;17.004;2023-03-24T08:32:50;19.98;;;3.15;;
34984;SDS011;21190;58.750;17.004;2023-03-24T08:35:22;17.95;;;3.28;;
34984;SDS011;21190;58.750;17.004;2023-03-24T08:37:51;19.15;;;3.20;;
34984;SDS011;21190;58.750;17.004;2023-03-24T08:40:20;16.48;;;2.83;;
34984;SDS011;21190;58.750;17.004;2023-03-24T08:42:50;19.13;;;3.97;;
34984;SDS011;21190;58.750;17.004;2023-03-24T08:45:19;14.27;;;2.72;;
34984;SDS011;21190;58.750;17.004;2023-03-24T08:47:49;15.48;;;2.53;;
34984;SDS011;21190;58.750;17.004;2023-03-24T08:50:18;20.48;;;3.13;;
34984;SDS011;21190;58.750;17.004;2023-03-24T08:52:47;16.10;;;3.78;;
34984;SDS011;21190;58.750;17.004;2023-03-24T08:55:14;18.65;;;3.88;;
34984;SDS011;21190;58.750;17.004;2023-03-24T08:57:43;16.08;;;2.50;;
34984;SDS011;21190;58.750;17.004;2023-03-24T09:00:13;21.45;;;3.33;;
34984;SDS011;21190;58.750;17.004;2023-03-24T09:02:41;19.55;;;2.88;;
34984;SDS011;21190;58.750;17.004;2023-03-24T09:05:11;15.73;;;3.53;;
34984;SDS011;21190;58.750;17.004;2023-03-24T09:07:38;11.73;;;3.40;;
34984;SDS011;21190;58.750;17.004;2023-03-24T09:10:06;18.88;;;3.17;;
34984;SDS011;21190;58.750;17.004;2023-03-24T09:12:35;18.58;;;4.30;;
34984;SDS011;21190;58.750;17.004;2023-03-24T09:15:03;14.95;;;3.28;;
34984;SDS011;21190;58.750;17.004;2023-03-24T09:17:32;17.15;;;3.33;;
34984;SDS011;21190;58.750;17.004;2023-03-24T09:19:59;18.13;;;3.33;;
34984;SDS011;21190;58.750;17.004;2023-03-24T09:22:27;18.67;;;3.40;;
34984;SDS011;21190;58.750;17.004;2023-03-24T09:24:54;10.98;;;3.00;;
34984;SDS011;21190;58.750;17.004;2023-03-24T09:27:21;18.60;;;3.80;;
34984;SDS011;21190;58.750;17.004;2023-03-24T09:29:49;21.05;;;3.50;;
34984;SDS011;21190;58.750;17.004;2023-03-24T09:32:18;25.40;;;4.05;;
34984;SDS011;21190;58.750;17.004;2023-03-24T09:34:45;21.52;;;2.92;;
34984;SDS011;21190;58.750;17.004;2023-03-24T09:37:12;14.93;;;3.38;;
34984;SDS011;21190;58.750;17.004;2023-03-24T09:39:39;23.67;;;4.05;;
34984;SDS011;21190;58.750;17.004;2023-03-24T09:42:06;16.55;;;3.38;;
34984;SDS011;21190;58.750;17.004;2023-03-24T09:44:44;14.68;;;2.83;;
34984;SDS011;21190;58.750;17.004;2023-03-24T09:49:51;24.42;;;3.70;;
34984;SDS011;21190;58.750;17.004;2023-03-24T09:52:23;20.23;;;3.50;;
34984;SDS011;21190;58.750;17.004;2023-03-24T09:55:04;17.73;;;3.00;;
34984;SDS011;21190;58.750;17.004;2023-03-24T09:57:40;18.95;;;3.55;;
34984;SDS011;21190;58.750;17.004;2023-03-24T10:00:18;25.40;;;5.07;;
34984;SDS011;21190;58.750;17.004;2023-03-24T10:02:51;18.00;;;3.42;;
34984;SDS011;21190;58.750;17.004;2023-03-24T10:05:27;18.55;;;3.00;;
34984;SDS011;21190;58.750;17.004;2023-03-24T10:08:17;18.92;;;3.05;;
34984;SDS011;21190;58.750;17.004;2023-03-24T10:13:20;10.93;;;3.85;;
34984;SDS011;21190;58.750;17.004;2023-03-24T10:16:03;15.98;;;3.72;;
34984;SDS011;21190;58.750;17.004;2023-03-24T10:21:24;15.07;;;2.92;;
34984;SDS011;21190;58.750;17.004;2023-03-24T10:23:56;16.25;;;2.80;;
34984;SDS011;21190;58.750;17.004;2023-03-24T10:26:36;18.38;;;2.90;;
34984;SDS011;21190;58.750;17.004;2023-03-24T10:31:46;14.52;;;3.92;;
34984;SDS011;21190;58.750;17.004;2023-03-24T10:34:16;15.63;;;3.20;;
34984;SDS011;21190;58.750;17.004;2023-03-24T10:36:44;12.23;;;3.10;;
34984;SDS011;21190;58.750;17.004;2023-03-24T10:39:15;12.55;;;3.17;;
34984;SDS011;21190;58.750;17.004;2023-03-24T10:41:51;12.13;;;3.08;;
34984;SDS011;21190;58.750;17.004;2023-03-24T10:44:20;17.25;;;4.78;;
34984;SDS011;21190;58.750;17.004;2023-03-24T10:46:51;8.70;;;2.38;;
34984;SDS011;21190;58.750;17.004;2023-03-24T10:49:21;15.93;;;2.58;;
34984;SDS011;21190;58.750;17.004;2023-03-24T10:51:50;12.10;;;2.95;;
34984;SDS011;21190;58.750;17.004;2023-03-24T10:56:51;13.25;;;3.00;;
34984;SDS011;21190;58.750;17.004;2023-03-24T10:59:30;16.80;;;3.70;;
34984;SDS011;21190;58.750;17.004;2023-03-24T11:05:19;10.32;;;2.78;;
34984;SDS011;21190;58.750;17.004;2023-03-24T11:07:48;12.23;;;3.38;;
34984;SDS011;21190;58.750;17.004;2023-03-24T11:10:18;13.73;;;4.20;;
34984;SDS011;21190;58.750;17.004;2023-03-24T11:12:58;7.28;;;3.05;;
34984;SDS011;21190;58.750;17.004;2023-03-24T11:15:32;14.27;;;3.67;;
34984;SDS011;21190;58.750;17.004;2023-03-24T11:20:40;21.25;;;6.25;;
34984;SDS011;21190;58.750;17.004;2023-03-24T11:23:19;13.73;;;4.80;;
34984;SDS011;21190;58.750;17.004;2023-03-24T11:28:49;11.40;;;3.28;;
34984;SDS011;21190;58.750;17.004;2023-03-24T11:31:24;17.48;;;4.30;;
34984;SDS011;21190;58.750;17.004;2023-03-24T11:33:59;13.88;;;3.63;;
34984;SDS011;21190;58.750;17.004;2023-03-24T11:36:39;12.18;;;3.53;;
34984;SDS011;21190;58.750;17.004;2023-03-24T11:39:25;11.55;;;3.70;;
34984;SDS011;21190;58.750;17.004;2023-03-24T11:42:13;7.65;;;3.55;;
34984;SDS011;21190;58.750;17.004;2023-03-24T11:44:48;8.88;;;3.60;;
34984;SDS011;21190;58.750;17.004;2023-03-24T11:47:21;8.30;;;3.05;;
34984;SDS011;21190;58.750;17.004;2023-03-24T11:52:35;8.43;;;4.22;;
34984;SDS011;21190;58.750;17.004;2023-03-24T11:55:12;7.65;;;2.97;;
34984;SDS011;21190;58.750;17.004;2023-03-24T11:58:25;9.13;;;3.35;;
34984;SDS011;21190;58.750;17.004;2023-03-24T12:13:56;8.30;;;2.78;;
34984;SDS011;21190;58.750;17.004;2023-03-24T12:16:42;5.50;;;2.80;;
34984;SDS011;21190;58.750;17.004;2023-03-24T12:33:56;6.00;;;1.95;;
34984;SDS011;21190;58.750;17.004;2023-03-24T12:39:27;6.78;;;1.65;;
34984;SDS011;21190;58.750;17.004;2023-03-24T12:42:03;8.63;;;2.80;;
34984;SDS011;21190;58.750;17.004;2023-03-24T13:01:21;9.80;;;2.50;;
34984;SDS011;21190;58.750;17.004;2023-03-24T13:04:10;3.95;;;1.80;;
34984;SDS011;21190;58.750;17.004;2023-03-24T13:09:21;2.25;;;1.35;;
34984;SDS011;21190;58.750;17.004;2023-03-24T13:12:12;2.95;;;1.50;;
34984;SDS011;21190;58.750;17.004;2023-03-24T13:15:02;3.30;;;1.73;;
34984;SDS011;21190;58.750;17.004;2023-03-24T13:17:38;6.13;;;1.50;;
34984;SDS011;21190;58.750;17.004;2023-03-24T13:20:24;2.20;;;1.10;;
34984;SDS011;21190;58.750;17.004;2023-03-24T13:22:55;2.53;;;1.30;;
34984;SDS011;21190;58.750;17.004;2023-03-24T13:25:32;2.90;;;1.30;;
34984;SDS011;21190;58.750;17.004;2023-03-24T13:28:09;9.30;;;2.97;;
34984;SDS011;21190;58.750;17.004;2023-03-24T13:30:40;3.53;;;1.70;;
34984;SDS011;21190;58.750;17.004;2023-03-24T13:33:19;2.35;;;1.20;;
34984;SDS011;21190;58.750;17.004;2023-03-24T13:38:48;2.80;;;1.55;;
34984;SDS011;21190;58.750;17.004;2023-03-24T13:41:18;2.78;;;1.65;;
34984;SDS011;21190;58.750;17.004;2023-03-24T13:43:50;5.68;;;2.13;;
34984;SDS011;21190;58.750;17.004;2023-03-24T13:46:27;4.50;;;2.40;;
34984;SDS011;21190;58.750;17.004;2023-03-24T13:48:55;5.65;;;2.75;;
34984;SDS011;21190;58.750;17.004;2023-03-24T13:51:25;10.32;;;3.33;;
34984;SDS011;21190;58.750;17.004;2023-03-24T13:54:02;8.52;;;4.32;;
34984;SDS011;21190;58.750;17.004;2023-03-24T13:56:46;8.40;;;3.88;;
34984;SDS011;21190;58.750;17.004;2023-03-24T13:59:23;6.85;;;3.70;;
34984;SDS011;21190;58.750;17.004;2023-03-24T14:12:51;21.50;;;5.38;;
34984;SDS011;21190;58.750;17.004;2023-03-24T14:17:55;13.07;;;5.78;;
34984;SDS011;21190;58.750;17.004;2023-03-24T14:20:41;22.13;;;5.10;;
34984;SDS011;21190;58.750;17.004;2023-03-24T14:23:33;27.27;;;7.03;;
34984;SDS011;21190;58.750;17.004;2023-03-24T14:26:03;25.63;;;5.63;;
34984;SDS011;21190;58.750;17.004;2023-03-24T14:31:29;26.98;;;6.68;;
34984;SDS011;21190;58.750;17.004;2023-03-24T14:34:12;23.88;;;6.03;;
34984;SDS011;21190;58.750;17.004;2023-03-24T14:36:45;10.75;;;5.53;;
34984;SDS011;21190;58.750;17.004;2023-03-24T14:39:26;17.52;;;6.00;;
34984;SDS011;21190;58.750;17.004;2023-03-24T14:41:56;25.45;;;7.22;;
34984;SDS011;21190;58.750;17.004;2023-03-24T14:47:10;30.75;;;6.93;;
34984;SDS011;21190;58.750;17.004;2023-03-24T14:49:42;16.60;;;5.97;;
34984;SDS011;21190;58.750;17.004;2023-03-24T14:52:54;17.98;;;7.60;;
34984;SDS011;21190;58.750;17.004;2023-03-24T14:55:08;15.50;;;6.68;;
34984;SDS011;21190;58.750;17.004;2023-03-24T14:57:38;19.27;;;7.28;;
34984;SDS011;21190;58.750;17.004;2023-03-24T15:00:17;13.50;;;6.78;;
34984;SDS011;21190;58.750;17.004;2023-03-24T15:03:38;17.27;;;6.65;;
34984;SDS011;21190;58.750;17.004;2023-03-24T15:06:16;19.35;;;7.03;;
34984;SDS011;21190;58.750;17.004;2023-03-24T15:08:47;16.80;;;8.07;;
34984;SDS011;21190;58.750;17.004;2023-03-24T15:11:18;15.18;;;6.60;;
34984;SDS011;21190;58.750;17.004;2023-03-24T15:13:50;12.05;;;6.95;;
34984;SDS011;21190;58.750;17.004;2023-03-24T15:16:25;15.07;;;6.63;;
34984;SDS011;21190;58.750;17.004;2023-03-24T15:18:57;10.70;;;6.53;;
34984;SDS011;21190;58.750;17.004;2023-03-24T15:26:53;13.52;;;6.65;;
34984;SDS011;21190;58.750;17.004;2023-03-24T15:29:21;11.52;;;6.72;;
34984;SDS011;21190;58.750;17.004;2023-03-24T15:31:49;10.77;;;6.45;;
34984;SDS011;21190;58.750;17.004;2023-03-24T15:37:03;13.07;;;6.63;;
34984;SDS011;21190;58.750;17.004;2023-03-24T15:39:34;9.95;;;6.00;;
34984;SDS011;21190;58.750;17.004;2023-03-24T15:42:13;11.75;;;6.38;;
34984;SDS011;21190;58.750;17.004;2023-03-24T15:44:42;11.57;;;6.45;;
34984;SDS011;21190;58.750;17.004;2023-03-24T15:49:50;13.48;;;6.68;;
34984;SDS011;21190;58.750;17.004;2023-03-24T15:52:31;13.13;;;5.97;;
34984;SDS011;21190;58.750;17.004;2023-03-24T15:55:07;11.02;;;5.80;;
34984;SDS011;21190;58.750;17.004;2023-03-24T15:57:47;12.07;;;6.28;;
34984;SDS011;21190;58.750;17.004;2023-03-24T16:00:15;13.20;;;6.72;;
34984;SDS011;21190;58.750;17.004;2023-03-24T16:02:46;11.27;;;5.75;;
34984;SDS011;21190;58.750;17.004;2023-03-24T16:05:23;8.27;;;5.22;;
34984;SDS011;21190;58.750;17.004;2023-03-24T16:08:00;7.85;;;4.80;;
34984;SDS011;21190;58.750;17.004;2023-03-24T16:10:32;6.32;;;3.83;;
34984;SDS011;21190;58.750;17.004;2023-03-24T16:15:45;4.70;;;3.13;;
34984;SDS011;21190;58.750;17.004;2023-03-24T16:18:15;4.60;;;2.95;;
34984;SDS011;21190;58.750;17.004;2023-03-24T16:20:46;5.53;;;2.70;;
34984;SDS011;21190;58.750;17.004;2023-03-24T16:23:14;3.58;;;2.50;;
34984;SDS011;21190;58.750;17.004;2023-03-24T16:25:41;2.72;;;1.90;;
34984;SDS011;21190;58.750;17.004;2023-03-24T16:28:09;2.90;;;1.80;;
34984;SDS011;21190;58.750;17.004;2023-03-24T16:30:38;2.67;;;2.30;;
34984;SDS011;21190;58.750;17.004;2023-03-24T16:33:07;3.90;;;2.00;;
34984;SDS011;21190;58.750;17.004;2023-03-24T16:35:35;1.90;;;1.30;;
34984;SDS011;21190;58.750;17.004;2023-03-24T16:38:02;1.23;;;1.10;;
34984;SDS011;21190;58.750;17.004;2023-03-24T16:40:44;1.58;;;0.95;;
34984;SDS011;21190;58.750;17.004;2023-03-24T16:43:14;3.58;;;1.42;;
34984;SDS011;21190;58.750;17.004;2023-03-24T16:45:41;2.28;;;0.90;;
34984;SDS011;21190;58.750;17.004;2023-03-24T16:48:09;0.82;;;0.70;;
34984;SDS011;21190;58.750;17.004;2023-03-24T16:53:05;0.60;;;0.40;;
34984;SDS011;21190;58.750;17.004;2023-03-24T16:55:36;1.35;;;0.95;;
34984;SDS011;21190;58.750;17.004;2023-03-24T16:58:04;0.77;;;0.50;;
34984;SDS011;21190;58.750;17.004;2023-03-24T17:00:32;2.47;;;0.80;;
34984;SDS011;21190;58.750;17.004;2023-03-24T17:03:02;4.57;;;0.50;;
34984;SDS011;21190;58.750;17.004;2023-03-24T17:05:46;2.35;;;0.50;;
34984;SDS011;21190;58.750;17.004;2023-03-24T17:08:14;0.38;;;0.30;;
34984;SDS011;21190;58.750;17.004;2023-03-24T17:10:44;0.90;;;0.50;;
34984;SDS011;21190;58.750;17.004;2023-03-24T17:13:21;0.43;;;0.40;;
34984;SDS011;21190;58.750;17.004;2023-03-24T17:15:50;3.25;;;0.70;;
34984;SDS011;21190;58.750;17.004;2023-03-24T17:18:18;9.38;;;5.53;;
34984;SDS011;21190;58.750;17.004;2023-03-24T17:20:45;3.97;;;2.15;;
34984;SDS011;21190;58.750;17.004;2023-03-24T17:23:14;1.27;;;0.40;;
34984;SDS011;21190;58.750;17.004;2023-03-24T17:25:43;0.85;;;0.57;;
34984;SDS011;21190;58.750;17.004;2023-03-24T17:28:12;2.58;;;0.82;;
34984;SDS011;21190;58.750;17.004;2023-03-24T17:30:39;1.42;;;1.00;;
34984;SDS011;21190;58.750;17.004;2023-03-24T17:33:10;1.27;;;1.17;;
34984;SDS011;21190;58.750;17.004;2023-03-24T17:35:41;1.35;;;0.50;;
34984;SDS011;21190;58.750;17.004;2023-03-24T17:38:12;1.17;;;0.50;;
34984;SDS011;21190;58.750;17.004;2023-03-24T17:40:41;0.52;;;0.43;;